createdAt,value
2023-05-02T00:02:41.412Z,13.14
2023-05-02T00:06:06.122Z,13.13
2023-05-02T00:09:30.189Z,13.21
2023-05-02T00:12:55.131Z,13.66
2023-05-02T00:16:20.541Z,13.41
2023-05-02T00:19:45.241Z,13.53
2023-05-02T00:23:09.669Z,13.39
2023-05-02T00:26:33.910Z,13.12
2023-05-02T00:29:58.916Z,13.38
2023-05-02T00:33:25.016Z,13.38
2023-05-02T00:36:49.099Z,13.23
2023-05-02T00:40:14.537Z,13.41
2023-05-02T00:43:40.069Z,13.18
2023-05-02T00:47:04.775Z,13.09
2023-05-02T00:50:30.907Z,13.43
2023-05-02T00:53:55.793Z,13.30
2023-05-02T00:57:20.268Z,13.56
2023-05-02T01:00:51.426Z,13.85
2023-05-02T01:04:22.768Z,13.61
2023-05-02T01:08:12.847Z,13.69
2023-05-02T01:11:40.299Z,13.73
2023-05-02T01:15:06.465Z,14.03
2023-05-02T01:18:32.800Z,13.63
2023-05-02T01:21:59.917Z,13.41
2023-05-02T01:25:30.213Z,13.40
2023-05-02T01:29:02.701Z,12.98
2023-05-02T01:32:27.198Z,13.05
2023-05-02T01:35:52.500Z,13.06
2023-05-02T01:39:18.198Z,12.93
2023-05-02T01:42:43.022Z,12.88
2023-05-02T01:46:09.791Z,12.88
2023-05-02T01:49:35.768Z,12.90
2023-05-02T01:52:59.985Z,12.39
2023-05-02T01:56:26.182Z,12.58
2023-05-02T01:59:50.594Z,12.32
2023-05-02T02:03:17.816Z,12.14
2023-05-02T02:06:43.921Z,12.28
2023-05-02T02:10:09.406Z,12.10
2023-05-02T02:13:36.548Z,11.99
2023-05-02T02:17:01.197Z,11.88
2023-05-02T02:20:27.802Z,12.08
2023-05-02T02:23:51.996Z,12.00
2023-05-02T02:27:17.030Z,11.91
2023-05-02T02:30:41.492Z,11.67
2023-05-02T02:34:06.087Z,11.62
2023-05-02T02:37:32.995Z,11.71
2023-05-02T02:40:58.263Z,11.25
2023-05-02T02:44:38.922Z,11.46
2023-05-02T02:48:08.689Z,11.51
2023-05-02T02:51:35.544Z,11.30
2023-05-02T02:55:06.736Z,11.31
2023-05-02T02:58:34.495Z,11.62
2023-05-02T03:02:03.163Z,11.52
2023-05-02T03:05:27.505Z,11.64
2023-05-02T03:08:53.377Z,11.40
2023-05-02T03:12:21.599Z,11.35
2023-05-02T03:16:16.547Z,11.53
2023-05-02T03:19:40.804Z,11.45
2023-05-02T03:23:05.589Z,11.41
2023-05-02T03:26:30.003Z,11.25
2023-05-02T03:29:56.204Z,10.81
2023-05-02T03:33:20.931Z,10.94
2023-05-02T03:36:46.081Z,10.58
2023-05-02T03:40:11.490Z,10.68
2023-05-02T03:43:36.072Z,10.61
2023-05-02T03:47:01.688Z,10.30
2023-05-02T03:50:26.886Z,10.45
2023-05-02T03:53:51.549Z,10.66
2023-05-02T03:57:16.075Z,10.67
2023-05-02T04:00:40.390Z,10.74
2023-05-02T04:04:07.209Z,10.74
2023-05-02T04:07:32.253Z,10.87
2023-05-02T04:10:58.168Z,11.03
2023-05-02T04:14:23.062Z,11.27
2023-05-02T04:17:48.130Z,11.62
2023-05-02T04:21:14.191Z,12.01
2023-05-02T04:24:39.895Z,12.51
2023-05-02T04:28:05.731Z,12.49
2023-05-02T04:31:30.845Z,12.49
2023-05-02T04:34:55.343Z,12.72
2023-05-02T04:38:21.998Z,12.74
2023-05-02T04:41:46.839Z,12.76
2023-05-02T04:45:12.776Z,12.78
2023-05-02T04:48:42.409Z,12.84
2023-05-02T04:52:07.732Z,13.06
2023-05-02T04:55:33.166Z,13.09
2023-05-02T04:58:57.896Z,13.14
2023-05-02T05:02:22.456Z,13.25
2023-05-02T05:05:47.433Z,13.44
2023-05-02T05:09:11.689Z,13.44
2023-05-02T05:12:37.994Z,13.52
2023-05-02T05:16:02.421Z,13.67
2023-05-02T05:19:29.112Z,13.67
2023-05-02T05:22:54.033Z,14.02
2023-05-02T05:26:19.460Z,14.19
2023-05-02T05:29:45.378Z,14.23
2023-05-02T05:33:10.564Z,14.37
2023-05-02T05:36:35.503Z,14.38
2023-05-02T05:40:00.884Z,14.48
2023-05-02T05:43:25.219Z,14.41
2023-05-02T05:46:51.295Z,14.41
2023-05-02T05:50:16.963Z,14.31
2023-05-02T05:53:43.561Z,14.23
2023-05-02T05:57:09.122Z,14.32
2023-05-02T06:00:36.272Z,14.48
2023-05-02T06:04:03.427Z,14.35
2023-05-02T06:07:28.501Z,14.42
2023-05-02T06:10:53.134Z,14.45
2023-05-02T06:14:17.036Z,14.63
2023-05-02T06:17:42.841Z,14.62
2023-05-02T06:21:08.674Z,14.91
2023-05-02T06:24:33.487Z,14.82
2023-05-02T06:27:57.561Z,14.99
2023-05-02T06:31:21.864Z,15.33
2023-05-02T06:34:46.647Z,15.37
2023-05-02T06:38:13.001Z,15.47
2023-05-02T06:41:37.158Z,15.60
2023-05-02T06:45:02.215Z,15.67
2023-05-02T06:48:25.972Z,15.68
2023-05-02T06:51:50.447Z,15.78
2023-05-02T06:55:16.262Z,15.88
2023-05-02T06:58:40.966Z,16.05
2023-05-02T07:02:05.673Z,16.37
2023-05-02T07:05:31.604Z,16.72
2023-05-02T07:08:55.844Z,16.79
2023-05-02T07:12:22.851Z,16.99
2023-05-02T07:15:46.990Z,17.07
2023-05-02T07:19:12.569Z,17.13
2023-05-02T07:22:37.977Z,17.15
2023-05-02T07:26:06.214Z,17.24
2023-05-02T07:29:32.571Z,17.32
2023-05-02T07:33:00.284Z,17.68
2023-05-02T07:36:25.145Z,17.68
2023-05-02T07:39:51.415Z,17.62
2023-05-02T07:43:17.135Z,17.74
2023-05-02T07:46:44.007Z,17.93
2023-05-02T07:50:10.206Z,18.47
2023-05-02T07:53:36.071Z,18.92
2023-05-02T07:57:04.099Z,19.84
2023-05-02T08:00:31.103Z,19.93
2023-05-02T08:03:57.979Z,20.28
2023-05-02T08:07:23.327Z,20.01
2023-05-02T08:10:48.477Z,20.09
2023-05-02T08:14:13.556Z,20.86
2023-05-02T08:17:39.843Z,20.96
2023-05-02T08:21:07.801Z,20.62
2023-05-02T08:24:33.343Z,20.44
2023-05-02T08:27:57.819Z,20.55
2023-05-02T08:31:23.652Z,20.40
2023-05-02T08:34:49.316Z,20.75
2023-05-02T08:38:16.379Z,21.01
2023-05-02T08:41:41.410Z,20.50
2023-05-02T08:45:07.805Z,20.45
2023-05-02T08:48:32.162Z,20.96
2023-05-02T08:51:57.771Z,20.79
2023-05-02T08:55:28.294Z,20.30
2023-05-02T08:58:54.579Z,20.52
2023-05-02T09:02:23.036Z,20.14
2023-05-02T09:05:47.817Z,20.37
2023-05-02T09:09:13.411Z,20.61
2023-05-02T09:12:40.062Z,20.80
2023-05-02T09:16:05.803Z,20.46
2023-05-02T09:19:31.863Z,20.45
2023-05-02T09:22:57.167Z,20.59
2023-05-02T09:26:22.675Z,20.45
2023-05-02T09:29:49.380Z,20.25
2023-05-02T09:33:15.515Z,20.70
2023-05-02T09:36:43.262Z,21.14
2023-05-02T09:40:09.486Z,20.53
2023-05-02T09:43:32.952Z,20.94
2023-05-02T09:47:01.162Z,21.65
2023-05-02T09:50:35.727Z,22.30
2023-05-02T09:54:02.356Z,22.67
2023-05-02T09:57:42.113Z,23.23
2023-05-02T10:01:07.837Z,23.52
2023-05-02T10:04:37.133Z,23.12
2023-05-02T10:08:01.159Z,23.39
2023-05-02T10:11:33.950Z,24.13
2023-05-02T10:15:01.797Z,23.90
2023-05-02T10:18:30.240Z,24.91
2023-05-02T10:21:56.405Z,25.27
2023-05-02T10:25:21.289Z,25.23
2023-05-02T10:28:46.237Z,26.15
2023-05-02T10:32:15.961Z,25.68
2023-05-02T10:35:40.322Z,26.29
2023-05-02T10:39:06.552Z,27.16
2023-05-02T10:42:31.441Z,27.29
2023-05-02T10:45:56.345Z,27.13
2023-05-02T10:49:27.685Z,27.53
2023-05-02T10:52:52.464Z,26.93
2023-05-02T10:56:23.254Z,25.82
2023-05-02T10:59:47.595Z,25.27
2023-05-02T11:03:12.410Z,24.97
2023-05-02T11:06:37.998Z,24.30
2023-05-02T11:10:28.941Z,24.11
2023-05-02T11:13:54.150Z,26.17
2023-05-02T11:17:21.339Z,25.16
2023-05-02T11:20:45.084Z,26.16
2023-05-02T11:24:40.587Z,26.14
2023-05-02T11:28:07.026Z,27.13
2023-05-02T11:31:58.073Z,26.89
2023-05-02T11:35:23.323Z,26.91
2023-05-02T11:38:47.289Z,25.25
2023-05-02T11:42:11.855Z,26.03
2023-05-02T11:45:36.727Z,27.29
2023-05-02T11:49:03.403Z,26.38
2023-05-02T11:52:27.275Z,25.33
2023-05-02T11:55:52.386Z,24.68
2023-05-02T11:59:17.039Z,25.69
2023-05-02T12:02:41.952Z,25.57
2023-05-02T12:06:15.253Z,25.14
2023-05-02T12:09:40.660Z,25.12
2023-05-02T12:13:07.937Z,25.84
2023-05-02T12:16:33.037Z,25.14
2023-05-02T12:19:57.723Z,25.98
2023-05-02T12:23:26.712Z,26.26
2023-05-02T12:26:53.169Z,27.13
2023-05-02T12:30:28.232Z,27.59
2023-05-02T12:33:53.082Z,27.10
2023-05-02T12:37:24.516Z,27.79
2023-05-02T12:40:52.652Z,26.59
2023-05-02T12:44:19.563Z,25.81
2023-05-02T12:47:48.843Z,26.10
2023-05-02T12:51:24.876Z,26.96
2023-05-02T12:54:50.197Z,25.85
2023-05-02T12:58:14.928Z,24.93
2023-05-02T13:01:38.513Z,25.16
2023-05-02T13:05:02.129Z,25.09
2023-05-02T13:08:26.628Z,24.75
2023-05-02T13:11:52.346Z,24.64
2023-05-02T13:15:24.773Z,24.33
2023-05-02T13:18:50.440Z,24.06
2023-05-02T13:22:17.531Z,23.91
2023-05-02T13:25:41.542Z,24.05
2023-05-02T13:29:05.125Z,23.89
2023-05-02T13:32:30.166Z,24.16
2023-05-02T13:35:54.319Z,24.43
2023-05-02T13:39:17.474Z,24.13
2023-05-02T13:42:43.750Z,24.50
2023-05-02T13:46:08.468Z,24.33
2023-05-02T13:49:35.288Z,24.28
2023-05-02T13:53:01.369Z,24.18
2023-05-02T13:56:26.101Z,23.85
2023-05-02T13:59:50.248Z,23.90
2023-05-02T14:03:15.595Z,23.94
2023-05-02T14:06:41.804Z,24.36
2023-05-02T14:10:05.917Z,24.03
2023-05-02T14:13:29.404Z,23.93
2023-05-02T14:16:53.084Z,24.13
2023-05-02T14:20:17.595Z,23.70
2023-05-02T14:23:44.109Z,23.67
2023-05-02T14:27:13.418Z,23.43
2023-05-02T14:30:38.137Z,23.55
2023-05-02T14:34:03.383Z,23.52
2023-05-02T14:37:27.959Z,23.39
2023-05-02T14:40:54.528Z,23.27
2023-05-02T14:44:18.994Z,23.07
2023-05-02T14:47:43.840Z,22.94
2023-05-02T14:51:08.487Z,23.10
2023-05-02T14:54:33.038Z,23.02
2023-05-02T14:57:58.923Z,22.96
2023-05-02T15:01:25.840Z,22.92
2023-05-02T15:04:51.303Z,23.07
2023-05-02T15:08:17.103Z,23.32
2023-05-02T15:11:41.899Z,23.17
2023-05-02T15:15:09.513Z,23.06
2023-05-02T15:18:34.931Z,23.22
2023-05-02T15:22:00.703Z,23.33
2023-05-02T15:25:24.688Z,23.34
2023-05-02T15:28:50.289Z,23.33
2023-05-02T15:32:16.212Z,23.44
2023-05-02T15:35:41.029Z,23.36
2023-05-02T15:39:06.670Z,23.47
2023-05-02T15:42:33.862Z,23.67
2023-05-02T15:46:10.024Z,23.19
2023-05-02T15:49:37.055Z,23.06
2023-05-02T15:53:01.755Z,23.29
2023-05-02T15:56:26.049Z,23.37
2023-05-02T15:59:50.447Z,23.08
2023-05-02T16:03:14.796Z,23.36
2023-05-02T16:10:33.107Z,23.26
2023-05-02T16:13:57.769Z,23.40
2023-05-02T16:17:22.160Z,23.18
2023-05-02T16:20:48.326Z,23.08
2023-05-02T16:24:13.792Z,22.94
2023-05-02T16:27:38.403Z,22.83
2023-05-02T16:31:11.612Z,22.75
2023-05-02T16:34:36.128Z,22.57
2023-05-02T16:38:00.630Z,22.53
2023-05-02T16:41:27.241Z,22.64
2023-05-02T16:44:51.770Z,22.34
2023-05-02T16:48:17.076Z,22.16
2023-05-02T16:51:41.575Z,22.07
2023-05-02T16:55:06.829Z,22.21
2023-05-02T16:58:32.156Z,22.09
2023-05-02T17:01:57.362Z,21.88
2023-05-02T17:05:23.041Z,21.80
2023-05-02T17:08:47.526Z,21.57
2023-05-02T17:12:12.117Z,21.62
2023-05-02T17:15:40.390Z,21.50
2023-05-02T17:19:04.431Z,21.45
2023-05-02T17:22:28.765Z,21.45
2023-05-02T17:25:53.825Z,21.35
2023-05-02T17:29:18.075Z,21.17
2023-05-02T17:32:43.805Z,21.09
2023-05-02T17:36:08.676Z,21.02
2023-05-02T17:39:33.360Z,20.91
2023-05-02T17:42:59.623Z,20.99
2023-05-02T17:46:24.347Z,21.30
2023-05-02T17:49:51.830Z,21.11
2023-05-02T17:53:16.624Z,20.94
2023-05-02T17:56:41.193Z,20.68
2023-05-02T18:00:08.502Z,20.71
2023-05-02T18:03:34.418Z,20.71
2023-05-02T18:07:02.123Z,20.37
2023-05-02T18:10:29.820Z,20.49
2023-05-02T18:13:55.707Z,20.55
2023-05-02T18:17:21.371Z,20.54
2023-05-02T18:20:51.792Z,20.19
2023-05-02T18:24:17.950Z,20.31
2023-05-02T18:27:42.036Z,20.43
2023-05-02T18:31:06.957Z,20.40
2023-05-02T18:34:36.250Z,20.31
2023-05-02T18:38:03.894Z,20.20
2023-05-02T18:41:29.796Z,20.04
2023-05-02T18:44:54.504Z,20.50
2023-05-02T18:48:20.460Z,20.45
2023-05-02T18:51:46.217Z,20.14
2023-05-02T18:55:12.114Z,20.30
2023-05-02T18:58:44.309Z,20.19
2023-05-02T19:02:09.134Z,20.02
2023-05-02T19:05:35.205Z,19.96
2023-05-02T19:09:01.122Z,19.87
2023-05-02T19:12:27.576Z,19.76
2023-05-02T19:15:53.976Z,19.87
2023-05-02T19:19:19.733Z,19.88
2023-05-02T19:22:44.636Z,19.88
2023-05-02T19:26:13.728Z,19.78
2023-05-02T19:29:38.871Z,19.51
2023-05-02T19:33:07.669Z,19.13
2023-05-02T19:36:32.891Z,18.87
2023-05-02T19:39:59.144Z,18.68
2023-05-02T19:43:23.816Z,18.64
2023-05-02T19:46:50.125Z,18.77
2023-05-02T19:50:16.925Z,18.74
2023-05-02T19:53:41.666Z,18.72
2023-05-02T19:57:06.606Z,18.49
2023-05-02T20:00:31.755Z,18.50
2023-05-02T20:03:58.547Z,18.30
2023-05-02T20:07:25.108Z,18.13
2023-05-02T20:10:52.455Z,17.92
2023-05-02T20:14:18.838Z,17.89
2023-05-02T20:17:44.605Z,17.78
2023-05-02T20:21:13.012Z,17.75
2023-05-02T20:24:40.300Z,17.73
2023-05-02T20:28:04.997Z,17.68
2023-05-02T20:31:29.899Z,18.01
2023-05-02T20:34:53.857Z,17.91
2023-05-02T20:38:19.577Z,17.98
2023-05-02T20:41:45.816Z,18.28
2023-05-02T20:45:12.842Z,18.12
2023-05-02T20:48:36.855Z,18.28
2023-05-02T20:52:06.281Z,18.27
2023-05-02T20:55:31.017Z,18.37
2023-05-02T20:58:58.256Z,18.30
2023-05-02T21:02:22.218Z,18.44
2023-05-02T21:05:47.069Z,17.98
2023-05-02T21:09:11.295Z,17.93
2023-05-02T21:12:35.611Z,17.86
2023-05-02T21:16:01.267Z,17.74
2023-05-02T21:19:25.846Z,17.69
2023-05-02T21:22:49.750Z,17.92
2023-05-02T21:26:14.180Z,17.95
2023-05-02T21:29:38.451Z,17.88
2023-05-02T21:33:04.605Z,17.80
2023-05-02T21:36:28.828Z,17.74
2023-05-02T21:39:53.250Z,17.61
2023-05-02T21:43:17.954Z,17.64
2023-05-02T21:46:42.594Z,17.69
2023-05-02T21:50:12.198Z,17.86
2023-05-02T21:53:37.616Z,17.81
2023-05-02T21:57:03.389Z,17.67
2023-05-02T22:00:28.015Z,17.63
2023-05-02T22:03:52.624Z,17.93
2023-05-02T22:07:17.917Z,17.80
2023-05-02T22:10:43.545Z,17.70
2023-05-02T22:14:08.556Z,17.50
2023-05-02T22:17:34.202Z,17.25
2023-05-02T22:20:59.910Z,17.01
2023-05-02T22:24:27.069Z,17.23
2023-05-02T22:27:51.044Z,17.00
2023-05-02T22:31:15.852Z,16.96
2023-05-02T22:34:40.631Z,16.77
2023-05-02T22:38:05.358Z,16.71
2023-05-02T22:41:30.671Z,16.82
2023-05-02T22:44:56.559Z,16.56
2023-05-02T22:48:21.045Z,15.72
2023-05-02T22:51:47.256Z,16.29
2023-05-02T22:55:12.138Z,16.43
2023-05-02T22:58:37.860Z,16.39
2023-05-02T23:02:01.879Z,16.53
2023-05-02T23:05:26.448Z,15.93
2023-05-02T23:08:50.774Z,15.97
2023-05-02T23:12:15.276Z,16.66
2023-05-02T23:15:42.042Z,16.60
2023-05-02T23:19:07.052Z,16.34
2023-05-02T23:22:31.492Z,16.40
2023-05-02T23:25:55.617Z,16.31
2023-05-02T23:29:19.390Z,16.33
2023-05-02T23:32:45.603Z,16.44
2023-05-02T23:36:10.468Z,15.76
2023-05-02T23:39:34.925Z,15.83
2023-05-02T23:42:58.776Z,15.90
2023-05-02T23:46:22.865Z,16.08
2023-05-02T23:49:48.450Z,16.10
2023-05-02T23:53:12.890Z,15.68
2023-05-02T23:56:36.675Z,15.78
